createdAt,value
2023-05-17T00:01:57.420Z,11.10
2023-05-17T00:04:30.003Z,9.68
2023-05-17T00:07:01.460Z,13.23
2023-05-17T00:09:32.627Z,11.93
2023-05-17T00:12:05.059Z,7.90
2023-05-17T00:14:36.842Z,7.80
2023-05-17T00:17:08.175Z,8.00
2023-05-17T00:19:40.166Z,7.75
2023-05-17T00:22:12.058Z,12.45
2023-05-17T00:24:43.433Z,14.07
2023-05-17T00:27:14.884Z,8.82
2023-05-17T00:29:47.477Z,11.38
2023-05-17T00:34:51.513Z,18.70
2023-05-17T00:37:22.480Z,11.63
2023-05-17T00:39:56.468Z,15.10
2023-05-17T00:42:27.977Z,15.40
2023-05-17T00:44:59.359Z,9.95
2023-05-17T00:47:31.105Z,13.80
2023-05-17T00:50:06.388Z,11.02
2023-05-17T00:52:39.428Z,11.55
2023-05-17T00:55:11.808Z,13.25
2023-05-17T00:57:44.529Z,13.20
2023-05-17T01:00:17.512Z,10.85
2023-05-17T01:02:49.948Z,13.48
2023-05-17T01:05:21.287Z,10.60
2023-05-17T01:07:52.532Z,11.48
2023-05-17T01:10:27.416Z,14.13
2023-05-17T01:13:35.701Z,10.65
2023-05-17T01:16:33.087Z,9.70
2023-05-17T01:19:11.515Z,9.20
2023-05-17T01:21:58.502Z,11.88
2023-05-17T01:24:55.500Z,9.07
2023-05-17T01:27:29.299Z,7.65
2023-05-17T01:30:03.182Z,11.25
2023-05-17T01:32:36.359Z,10.95
2023-05-17T01:35:08.544Z,10.07
2023-05-17T01:37:42.467Z,15.30
2023-05-17T01:40:15.681Z,10.38
2023-05-17T01:42:51.185Z,10.45
2023-05-17T01:45:30.755Z,10.02
2023-05-17T01:48:31.341Z,12.57
2023-05-17T01:51:02.956Z,13.15
2023-05-17T01:53:44.436Z,14.88
2023-05-17T01:56:24.425Z,9.07
2023-05-17T01:58:56.138Z,10.55
2023-05-17T02:01:30.081Z,8.35
2023-05-17T02:04:01.497Z,8.93
2023-05-17T02:06:34.877Z,7.45
2023-05-17T02:09:05.192Z,12.38
2023-05-17T02:11:35.493Z,8.32
2023-05-17T02:14:06.477Z,11.32
2023-05-17T02:16:37.644Z,8.68
2023-05-17T02:19:10.235Z,13.77
2023-05-17T02:21:42.331Z,10.38
2023-05-17T02:24:12.437Z,12.70
2023-05-17T02:26:44.367Z,11.43
2023-05-17T02:29:14.626Z,14.63
2023-05-17T02:31:44.787Z,11.15
2023-05-17T02:34:14.905Z,16.77
2023-05-17T02:36:45.783Z,9.93
2023-05-17T02:39:15.910Z,12.57
2023-05-17T02:41:46.304Z,11.32
2023-05-17T02:44:17.653Z,9.10
2023-05-17T02:46:48.097Z,8.68
2023-05-17T02:49:18.301Z,9.25
2023-05-17T02:51:48.557Z,10.55
2023-05-17T02:54:19.259Z,15.00
2023-05-17T02:56:50.675Z,12.52
2023-05-17T02:59:21.097Z,14.98
2023-05-17T03:01:52.591Z,12.48
2023-05-17T03:04:22.756Z,9.25
2023-05-17T03:06:53.770Z,9.18
2023-05-17T03:09:24.249Z,10.98
2023-05-17T03:11:55.146Z,16.30
2023-05-17T03:14:29.642Z,7.40
2023-05-17T03:17:00.012Z,6.82
2023-05-17T03:19:30.796Z,6.53
2023-05-17T03:22:01.120Z,8.93
2023-05-17T03:24:31.837Z,15.68
2023-05-17T03:27:04.678Z,9.75
2023-05-17T03:29:35.165Z,8.85
2023-05-17T03:32:05.863Z,8.60
2023-05-17T03:34:35.908Z,10.15
2023-05-17T03:37:06.179Z,9.73
2023-05-17T03:39:36.673Z,10.48
2023-05-17T03:42:08.102Z,12.70
2023-05-17T03:44:38.501Z,10.23
2023-05-17T03:47:08.737Z,8.82
2023-05-17T03:49:38.985Z,9.23
2023-05-17T03:52:09.881Z,10.25
2023-05-17T03:54:41.189Z,9.45
2023-05-17T03:57:11.365Z,11.00
2023-05-17T03:59:42.412Z,8.82
2023-05-17T04:02:12.976Z,7.13
2023-05-17T04:04:43.213Z,14.45
2023-05-17T04:07:13.373Z,11.65
2023-05-17T04:09:43.616Z,9.18
2023-05-17T04:12:13.961Z,8.30
2023-05-17T04:14:44.669Z,18.33
2023-05-17T04:17:16.901Z,7.93
2023-05-17T04:19:48.458Z,9.23
2023-05-17T04:22:18.719Z,8.82
2023-05-17T04:24:48.932Z,10.98
2023-05-17T04:27:19.045Z,9.85
2023-05-17T04:29:51.019Z,6.95
2023-05-17T04:32:21.506Z,7.88
2023-05-17T04:34:53.231Z,15.15
2023-05-17T04:37:23.490Z,9.75
2023-05-17T04:39:57.491Z,7.57
2023-05-17T04:42:29.373Z,9.07
2023-05-17T04:45:01.691Z,9.38
2023-05-17T04:47:32.926Z,8.25
2023-05-17T04:50:05.514Z,8.30
2023-05-17T04:52:38.639Z,8.68
2023-05-17T04:55:09.199Z,9.45
2023-05-17T04:57:39.908Z,8.20
2023-05-17T05:00:12.056Z,9.98
2023-05-17T05:02:44.642Z,10.20
2023-05-17T05:05:16.037Z,8.48
2023-05-17T05:07:48.991Z,9.73
2023-05-17T05:10:19.681Z,9.15
2023-05-17T05:12:50.311Z,8.30
2023-05-17T05:15:21.219Z,9.90
2023-05-17T05:17:57.209Z,9.60
2023-05-17T05:20:28.233Z,14.80
2023-05-17T05:23:00.121Z,8.85
2023-05-17T05:25:30.675Z,10.85
2023-05-17T05:28:01.007Z,7.82
2023-05-17T05:30:34.784Z,10.40
2023-05-17T05:33:05.050Z,7.10
2023-05-17T05:35:35.351Z,8.50
2023-05-17T05:38:06.412Z,8.77
2023-05-17T05:40:37.453Z,8.60
2023-05-17T05:43:07.626Z,9.65
2023-05-17T05:45:37.976Z,10.00
2023-05-17T05:48:12.217Z,11.13
2023-05-17T05:50:47.051Z,10.65
2023-05-17T05:53:19.469Z,8.88
2023-05-17T05:55:57.288Z,8.80
2023-05-17T05:58:28.816Z,8.15
2023-05-17T06:00:59.190Z,7.55
2023-05-17T06:03:29.317Z,10.07
2023-05-17T06:05:59.429Z,12.77
2023-05-17T06:08:30.577Z,8.98
2023-05-17T06:11:00.683Z,9.45
2023-05-17T06:13:33.404Z,12.40
2023-05-17T06:16:03.529Z,10.07
2023-05-17T06:18:34.563Z,10.52
2023-05-17T06:21:04.720Z,9.45
2023-05-17T06:23:35.014Z,8.88
2023-05-17T06:26:05.377Z,9.43
2023-05-17T06:28:35.433Z,7.47
2023-05-17T06:31:05.689Z,7.90
2023-05-17T06:33:35.837Z,8.05
2023-05-17T06:36:06.188Z,8.80
2023-05-17T06:38:37.641Z,8.88
2023-05-17T06:41:07.859Z,9.02
2023-05-17T06:43:38.099Z,10.10
2023-05-17T06:46:08.672Z,7.57
2023-05-17T06:48:38.965Z,6.85
2023-05-17T06:51:09.282Z,7.80
2023-05-17T06:53:39.431Z,9.63
2023-05-17T06:56:09.659Z,7.78
2023-05-17T06:58:39.802Z,8.35
2023-05-17T07:01:09.857Z,15.48
2023-05-17T07:03:39.838Z,8.05
2023-05-17T07:06:10.035Z,7.22
2023-05-17T07:08:41.726Z,9.15
2023-05-17T07:11:12.934Z,10.13
2023-05-17T07:13:43.031Z,7.13
2023-05-17T07:16:13.365Z,7.57
2023-05-17T07:18:43.552Z,8.15
2023-05-17T07:21:13.753Z,7.13
2023-05-17T07:23:44.255Z,7.82
2023-05-17T07:26:15.264Z,6.22
2023-05-17T07:28:45.581Z,6.63
2023-05-17T07:31:15.833Z,6.63
2023-05-17T07:33:46.097Z,9.55
2023-05-17T07:36:16.291Z,7.80
2023-05-17T07:38:46.399Z,10.18
2023-05-17T07:41:19.205Z,10.98
2023-05-17T07:46:20.340Z,8.07
2023-05-17T07:48:50.596Z,8.23
2023-05-17T07:51:20.813Z,9.00
2023-05-17T07:53:50.910Z,9.52
2023-05-17T07:56:21.035Z,9.45
2023-05-17T07:58:51.222Z,8.70
2023-05-17T08:01:21.306Z,7.53
2023-05-17T08:03:52.406Z,8.13
2023-05-17T08:06:22.691Z,11.50
2023-05-17T08:08:52.879Z,9.30
2023-05-17T08:11:22.917Z,7.60
2023-05-17T08:13:52.988Z,12.52
2023-05-17T08:16:23.024Z,8.65
2023-05-17T08:18:53.189Z,9.13
2023-05-17T08:21:23.914Z,7.40
2023-05-17T08:23:54.004Z,7.25
2023-05-17T08:26:24.042Z,7.75
2023-05-17T08:28:54.144Z,8.77
2023-05-17T08:31:25.164Z,8.90
2023-05-17T08:33:55.444Z,9.43
2023-05-17T08:36:25.874Z,8.35
2023-05-17T08:38:56.023Z,6.90
2023-05-17T08:41:26.149Z,8.70
2023-05-17T08:43:58.016Z,7.53
2023-05-17T08:46:29.440Z,8.68
2023-05-17T08:49:03.343Z,8.70
2023-05-17T08:51:34.950Z,7.47
2023-05-17T08:54:07.334Z,7.82
2023-05-17T08:56:44.341Z,11.27
2023-05-17T08:59:14.827Z,7.90
2023-05-17T09:01:46.441Z,10.40
2023-05-17T09:04:18.125Z,8.18
2023-05-17T09:06:49.266Z,7.68
2023-05-17T09:09:20.187Z,9.52
2023-05-17T09:11:50.293Z,8.48
2023-05-17T09:14:20.489Z,6.32
2023-05-17T09:16:59.276Z,7.18
2023-05-17T09:19:29.925Z,8.98
2023-05-17T09:22:03.684Z,8.15
2023-05-17T09:24:33.858Z,8.02
2023-05-17T09:27:05.481Z,9.23
2023-05-17T09:29:36.948Z,7.72
2023-05-17T09:32:35.660Z,11.65
2023-05-17T09:35:06.890Z,6.80
2023-05-17T09:37:40.457Z,10.82
2023-05-17T09:40:11.877Z,6.75
2023-05-17T09:42:42.340Z,7.32
2023-05-17T09:45:12.715Z,9.52
2023-05-17T09:47:43.369Z,8.00
2023-05-17T09:50:21.396Z,10.77
2023-05-17T09:52:52.759Z,8.65
2023-05-17T09:55:28.995Z,8.35
2023-05-17T09:58:05.458Z,7.57
2023-05-17T10:00:35.624Z,11.13
2023-05-17T10:03:07.692Z,10.73
2023-05-17T10:05:38.696Z,10.85
2023-05-17T10:08:09.095Z,8.90
2023-05-17T10:10:40.020Z,11.45
2023-05-17T10:13:14.246Z,6.97
2023-05-17T10:15:45.098Z,8.13
2023-05-17T10:18:17.208Z,14.65
2023-05-17T10:20:49.377Z,13.60
2023-05-17T10:23:20.951Z,14.70
2023-05-17T10:25:53.247Z,14.13
2023-05-17T10:28:24.129Z,12.65
2023-05-17T10:30:57.145Z,11.68
2023-05-17T10:33:29.307Z,9.57
2023-05-17T10:36:00.934Z,12.40
2023-05-17T10:38:41.721Z,11.65
2023-05-17T10:41:15.558Z,13.02
2023-05-17T10:46:24.096Z,9.70
2023-05-17T10:48:56.265Z,14.15
2023-05-17T10:51:32.856Z,9.07
2023-05-17T10:54:11.378Z,10.63
2023-05-17T10:56:54.557Z,17.70
2023-05-17T10:59:30.900Z,14.38
2023-05-17T11:02:08.914Z,10.00
2023-05-17T11:04:40.167Z,13.10
2023-05-17T11:07:20.089Z,13.63
2023-05-17T11:10:07.373Z,14.38
2023-05-17T11:12:45.881Z,16.30
2023-05-17T11:15:17.726Z,17.60
2023-05-17T11:17:58.186Z,14.38
2023-05-17T11:20:28.634Z,13.60
2023-05-17T11:23:08.050Z,11.80
2023-05-17T11:25:42.409Z,12.48
2023-05-17T11:28:23.515Z,16.15
2023-05-17T11:31:02.722Z,12.23
2023-05-17T11:33:46.299Z,13.88
2023-05-17T11:36:24.294Z,15.43
2023-05-17T11:39:17.070Z,17.17
2023-05-17T11:41:51.233Z,13.57
2023-05-17T11:44:28.101Z,13.23
2023-05-17T11:47:10.603Z,11.02
2023-05-17T11:49:41.902Z,12.02
2023-05-17T11:52:11.987Z,10.15
2023-05-17T11:54:44.107Z,9.57
2023-05-17T11:57:18.050Z,10.35
2023-05-17T11:59:49.226Z,10.25
2023-05-17T12:02:30.055Z,10.60
2023-05-17T12:05:00.555Z,10.75
2023-05-17T12:07:30.923Z,10.85
2023-05-17T12:10:01.984Z,11.73
2023-05-17T12:12:32.187Z,11.32
2023-05-17T12:15:02.338Z,16.33
2023-05-17T12:17:43.306Z,11.80
2023-05-17T12:20:14.026Z,16.77
2023-05-17T12:22:59.249Z,16.98
2023-05-17T12:25:30.857Z,13.52
2023-05-17T12:28:23.432Z,16.58
2023-05-17T12:31:04.343Z,17.98
2023-05-17T12:33:37.764Z,23.25
2023-05-17T12:36:10.101Z,24.10
2023-05-17T12:38:46.313Z,27.45
2023-05-17T12:41:18.085Z,31.92
2023-05-17T12:43:48.288Z,37.05
2023-05-17T12:46:21.489Z,33.72
2023-05-17T12:48:55.132Z,27.75
2023-05-17T12:51:25.695Z,25.05
2023-05-17T12:53:59.121Z,21.65
2023-05-17T12:56:31.022Z,21.40
2023-05-17T12:59:08.326Z,20.90
2023-05-17T13:01:50.876Z,15.60
2023-05-17T13:04:22.447Z,14.77
2023-05-17T13:06:59.482Z,15.48
2023-05-17T13:09:34.576Z,15.02
2023-05-17T13:12:09.247Z,13.50
2023-05-17T13:14:50.026Z,18.30
2023-05-17T13:17:38.166Z,15.43
2023-05-17T13:20:10.681Z,16.52
2023-05-17T13:22:59.039Z,13.05
2023-05-17T13:25:29.194Z,15.60
2023-05-17T13:27:59.446Z,11.20
2023-05-17T13:30:29.892Z,13.90
2023-05-17T13:33:00.546Z,11.27
2023-05-17T13:35:30.792Z,12.45
2023-05-17T13:38:01.694Z,9.98
2023-05-17T13:40:32.112Z,9.35
2023-05-17T13:43:02.357Z,15.63
2023-05-17T13:45:32.772Z,8.82
2023-05-17T13:48:02.920Z,13.00
2023-05-17T13:50:33.204Z,11.88
2023-05-17T13:53:04.217Z,10.48
2023-05-17T13:55:34.380Z,9.63
2023-05-17T13:58:04.626Z,10.55
2023-05-17T14:00:34.848Z,17.23
2023-05-17T14:03:05.199Z,7.50
2023-05-17T14:05:38.492Z,8.82
2023-05-17T14:08:10.086Z,9.80
2023-05-17T14:10:40.369Z,10.65
2023-05-17T14:13:10.622Z,9.30
2023-05-17T14:15:41.875Z,9.55
2023-05-17T14:18:14.649Z,10.32
2023-05-17T14:20:45.831Z,6.70
2023-05-17T14:23:16.106Z,8.23
2023-05-17T14:25:47.304Z,8.60
2023-05-17T14:28:19.320Z,11.45
2023-05-17T14:30:49.423Z,7.43
2023-05-17T14:33:20.736Z,7.47
2023-05-17T14:35:51.436Z,8.13
2023-05-17T14:38:23.552Z,8.43
2023-05-17T14:40:53.629Z,7.05
2023-05-17T14:43:24.104Z,7.28
2023-05-17T14:45:54.278Z,7.43
2023-05-17T14:48:24.582Z,6.55
2023-05-17T14:50:54.948Z,5.97
2023-05-17T14:53:30.157Z,7.40
2023-05-17T14:56:00.688Z,7.10
2023-05-17T14:58:30.913Z,8.55
2023-05-17T15:01:06.695Z,5.50
2023-05-17T15:03:37.683Z,5.82
2023-05-17T15:06:11.664Z,5.45
2023-05-17T15:08:42.179Z,6.40
2023-05-17T15:11:12.429Z,5.13
2023-05-17T15:13:42.590Z,8.38
2023-05-17T15:16:13.364Z,5.47
2023-05-17T15:18:44.165Z,6.22
2023-05-17T15:21:20.143Z,7.45
2023-05-17T15:23:51.924Z,7.13
2023-05-17T15:26:23.285Z,7.25
2023-05-17T15:28:53.459Z,8.07
2023-05-17T15:31:25.378Z,5.18
2023-05-17T15:33:56.397Z,6.13
2023-05-17T15:36:26.814Z,4.45
2023-05-17T15:38:56.928Z,5.00
2023-05-17T15:41:30.194Z,5.22
2023-05-17T15:44:00.761Z,5.13
2023-05-17T15:46:30.841Z,5.22
2023-05-17T15:49:00.827Z,11.38
2023-05-17T15:51:31.167Z,4.68
2023-05-17T15:54:01.279Z,6.60
2023-05-17T15:56:31.410Z,6.20
2023-05-17T15:59:02.894Z,6.13
2023-05-17T16:01:33.146Z,6.38
2023-05-17T16:04:03.399Z,6.15
2023-05-17T16:06:37.153Z,5.60
2023-05-17T16:09:07.922Z,5.63
2023-05-17T16:11:38.301Z,5.15
2023-05-17T16:14:08.659Z,6.97
2023-05-17T16:16:38.752Z,6.45
2023-05-17T16:19:10.708Z,5.80
2023-05-17T16:21:41.238Z,5.05
2023-05-17T16:24:11.496Z,5.95
2023-05-17T16:26:42.081Z,6.80
2023-05-17T16:29:14.815Z,7.60
2023-05-17T16:31:45.143Z,4.43
2023-05-17T16:34:15.365Z,4.38
2023-05-17T16:36:48.552Z,7.32
2023-05-17T16:39:18.795Z,6.38
2023-05-17T16:41:50.032Z,4.72
2023-05-17T16:44:20.804Z,6.53
2023-05-17T16:46:51.441Z,9.05
2023-05-17T16:49:21.711Z,8.23
2023-05-17T16:51:53.406Z,7.13
2023-05-17T16:54:24.366Z,8.73
2023-05-17T16:56:54.449Z,9.73
2023-05-17T16:59:25.372Z,8.00
2023-05-17T17:01:56.507Z,5.82
2023-05-17T17:04:27.993Z,5.70
2023-05-17T17:06:58.064Z,8.70
2023-05-17T17:09:30.226Z,5.70
2023-05-17T17:12:02.832Z,6.13
2023-05-17T17:14:39.181Z,7.30
2023-05-17T17:17:10.093Z,6.63
2023-05-17T17:19:40.346Z,7.40
2023-05-17T17:22:12.905Z,7.40
2023-05-17T17:24:43.893Z,6.32
2023-05-17T17:27:13.972Z,6.43
2023-05-17T17:29:44.293Z,8.65
2023-05-17T17:32:14.777Z,7.47
2023-05-17T17:34:45.206Z,9.18
2023-05-17T17:37:15.340Z,6.30
2023-05-17T17:39:45.974Z,6.80
2023-05-17T17:42:17.164Z,6.13
2023-05-17T17:44:47.286Z,6.68
2023-05-17T17:47:17.600Z,4.85
2023-05-17T17:49:47.699Z,5.70
2023-05-17T17:52:17.784Z,9.93
2023-05-17T17:54:48.399Z,8.75
2023-05-17T17:57:20.089Z,9.52
2023-05-17T17:59:50.408Z,4.40
2023-05-17T18:02:20.731Z,7.57
2023-05-17T18:04:51.264Z,11.70
2023-05-17T18:07:21.719Z,7.65
2023-05-17T18:09:52.806Z,7.82
2023-05-17T18:12:23.199Z,9.63
2023-05-17T18:14:53.841Z,7.63
2023-05-17T18:17:24.240Z,9.52
2023-05-17T18:19:55.884Z,10.15
2023-05-17T18:22:26.932Z,10.23
2023-05-17T18:24:57.621Z,7.95
2023-05-17T18:27:27.860Z,10.85
2023-05-17T18:29:57.969Z,10.20
2023-05-17T18:32:28.019Z,8.52
2023-05-17T18:34:58.365Z,8.93
2023-05-17T18:37:28.449Z,7.40
2023-05-17T18:39:58.538Z,8.20
2023-05-17T18:42:28.753Z,7.20
2023-05-17T18:44:59.509Z,5.55
2023-05-17T18:47:29.871Z,4.00
2023-05-17T18:50:00.853Z,7.00
2023-05-17T18:52:31.266Z,11.57
2023-05-17T18:55:01.357Z,8.98
2023-05-17T18:57:31.753Z,5.88
2023-05-17T19:00:02.131Z,6.22
2023-05-17T19:02:32.541Z,3.85
2023-05-17T19:05:02.905Z,6.20
2023-05-17T19:07:33.012Z,6.28
2023-05-17T19:10:03.286Z,4.90
2023-05-17T19:12:33.660Z,8.00
2023-05-17T19:15:04.313Z,5.93
2023-05-17T19:17:34.768Z,3.83
2023-05-17T19:20:06.172Z,7.72
2023-05-17T19:22:37.018Z,6.10
2023-05-17T19:25:07.825Z,9.82
2023-05-17T19:27:38.124Z,7.25
2023-05-17T19:30:09.003Z,6.75
2023-05-17T19:32:39.278Z,4.97
2023-05-17T19:35:10.292Z,8.55
2023-05-17T19:37:40.533Z,6.10
2023-05-17T19:40:11.186Z,5.32
2023-05-17T19:42:41.467Z,7.90
2023-05-17T19:45:13.353Z,7.72
2023-05-17T19:47:44.301Z,6.35
2023-05-17T19:50:16.045Z,6.38
2023-05-17T19:52:46.346Z,10.27
2023-05-17T19:55:22.704Z,13.57
2023-05-17T19:57:53.285Z,15.15
2023-05-17T20:00:23.553Z,8.88
2023-05-17T20:02:55.001Z,9.23
2023-05-17T20:05:26.633Z,10.07
2023-05-17T20:07:57.947Z,11.27
2023-05-17T20:10:30.987Z,9.98
2023-05-17T20:13:01.788Z,10.98
2023-05-17T20:15:32.242Z,8.45
2023-05-17T20:18:02.615Z,8.85
2023-05-17T20:20:33.355Z,7.22
2023-05-17T20:23:03.447Z,6.63
2023-05-17T20:25:35.172Z,6.75
2023-05-17T20:28:05.332Z,7.65
2023-05-17T20:30:35.612Z,6.82
2023-05-17T20:33:07.369Z,6.30
2023-05-17T20:35:38.866Z,10.55
2023-05-17T20:38:08.977Z,11.88
2023-05-17T20:40:39.128Z,10.75
2023-05-17T20:43:10.919Z,12.98
2023-05-17T20:45:41.367Z,10.38
2023-05-17T20:48:11.667Z,15.35
2023-05-17T20:50:41.818Z,6.40
2023-05-17T20:53:12.093Z,10.38
2023-05-17T20:55:42.922Z,10.48
2023-05-17T20:58:13.130Z,8.52
2023-05-17T21:00:43.404Z,13.52
2023-05-17T21:03:13.592Z,10.93
2023-05-17T21:05:44.028Z,11.13
2023-05-17T21:08:14.253Z,9.65
2023-05-17T21:10:47.471Z,11.05
2023-05-17T21:13:19.282Z,8.88
2023-05-17T21:15:49.937Z,20.85
2023-05-17T21:18:20.402Z,8.40
2023-05-17T21:20:52.193Z,16.40
2023-05-17T21:23:22.623Z,12.57
2023-05-17T21:25:52.816Z,10.32
2023-05-17T21:28:23.162Z,16.92
2023-05-17T21:30:56.237Z,12.63
2023-05-17T21:33:26.563Z,9.70
2023-05-17T21:35:57.015Z,15.95
2023-05-17T21:38:30.260Z,11.95
2023-05-17T21:41:00.390Z,11.98
2023-05-17T21:43:30.820Z,9.27
2023-05-17T21:46:01.528Z,10.30
2023-05-17T21:48:31.949Z,16.52
2023-05-17T21:51:02.176Z,10.73
2023-05-17T21:53:32.399Z,11.27
2023-05-17T21:56:03.161Z,15.15
2023-05-17T21:58:33.696Z,12.95
2023-05-17T22:01:04.102Z,13.82
2023-05-17T22:03:34.346Z,10.52
2023-05-17T22:06:05.513Z,11.95
2023-05-17T22:08:36.055Z,14.77
2023-05-17T22:11:06.945Z,12.70
2023-05-17T22:13:37.191Z,11.75
2023-05-17T22:16:08.444Z,16.55
2023-05-17T22:18:39.468Z,15.05
2023-05-17T22:21:10.114Z,13.48
2023-05-17T22:23:40.448Z,12.57
2023-05-17T22:26:10.829Z,17.13
2023-05-17T22:28:41.215Z,10.10
2023-05-17T22:31:11.606Z,13.55
2023-05-17T22:33:48.606Z,13.23
2023-05-17T22:36:20.687Z,16.67
2023-05-17T22:38:51.535Z,13.00
2023-05-17T22:41:26.407Z,18.05
2023-05-17T22:43:56.804Z,16.15
2023-05-17T22:47:08.583Z,19.25
2023-05-17T22:49:42.175Z,14.90
2023-05-17T22:52:37.130Z,15.38
2023-05-17T22:55:12.085Z,15.23
2023-05-17T22:57:42.721Z,14.43
2023-05-17T23:00:17.004Z,15.57
2023-05-17T23:02:48.618Z,13.27
2023-05-17T23:05:39.959Z,13.68
2023-05-17T23:08:11.135Z,13.60
2023-05-17T23:10:43.040Z,17.00
2023-05-17T23:13:38.251Z,17.20
2023-05-17T23:16:10.238Z,16.88
2023-05-17T23:18:45.285Z,14.95
2023-05-17T23:21:18.460Z,13.63
2023-05-17T23:23:53.672Z,17.75
2023-05-17T23:26:25.151Z,14.57
2023-05-17T23:29:16.654Z,14.30
2023-05-17T23:31:50.350Z,16.77
2023-05-17T23:34:22.562Z,14.80
2023-05-17T23:37:14.647Z,12.57
2023-05-17T23:39:48.452Z,15.43
2023-05-17T23:42:40.108Z,16.13
2023-05-17T23:45:16.125Z,15.40
2023-05-17T23:47:52.739Z,19.92
2023-05-17T23:50:24.810Z,16.40
2023-05-17T23:52:59.197Z,10.98
2023-05-17T23:55:31.198Z,13.32
2023-05-17T23:58:03.278Z,11.25
